Time,TemperatureF,DewpointF,PressureIn,WindDirection,WindDirectionDegrees,WindSpeedMPH,WindSpeedGustMPH,Humidity,HourlyPrecipIn,Conditions,Clouds,dailyrainin,SoftwareType,DateUTC
2013-01-31 00:03:00,11.0,4.4,29.59,NNW,347,3.0,5.0,74,0.00,,,0.00,Meteo,2013-01-31 06:03:00,
2013-01-31 00:08:00,11.0,3.8,29.59,NNW,342,6.0,9.0,72,0.00,,,0.00,Meteo,2013-01-31 06:08:00,
2013-01-31 00:13:00,11.0,3.5,29.59,NNW,338,5.0,7.0,71,0.00,,,0.00,Meteo,2013-01-31 06:13:00,
2013-01-31 00:18:00,11.0,3.1,29.59,NNW,334,4.0,6.0,70,0.00,,,0.00,Meteo,2013-01-31 06:18:00,
2013-01-31 00:23:00,11.0,3.5,29.59,NNW,341,5.0,9.0,71,0.00,,,0.00,Meteo,2013-01-31 06:23:00,
2013-01-31 00:28:00,11.0,3.5,29.59,NNW,331,4.0,6.0,71,0.00,,,0.00,Meteo,2013-01-31 06:28:00,
2013-01-31 00:33:00,11.0,3.5,29.60,NNW,341,4.0,8.0,71,0.00,,,0.00,Meteo,2013-01-31 06:33:00,
2013-01-31 00:38:00,11.0,3.8,29.60,NNW,331,6.0,8.0,72,0.00,,,0.00,Meteo,2013-01-31 06:38:00,
2013-01-31 00:43:00,10.0,3.1,29.60,NNW,328,4.0,8.0,73,0.00,,,0.00,Meteo,2013-01-31 06:43:00,
2013-01-31 00:48:00,10.0,3.4,29.60,NW,322,3.0,7.0,74,0.00,,,0.00,Meteo,2013-01-31 06:48:00,
2013-01-31 00:53:00,10.0,4.0,29.60,NNW,327,2.0,4.0,76,0.00,,,0.00,Meteo,2013-01-31 06:53:00,
2013-01-31 00:58:00,10.0,3.7,29.60,NW,304,3.0,4.0,75,0.00,,,0.00,Meteo,2013-01-31 06:58:00,
2013-01-31 01:03:00,10.0,3.7,29.60,NW,310,3.0,6.0,75,0.00,,,0.00,Meteo,2013-01-31 07:03:00,
2013-01-31 01:08:00,10.0,3.4,29.60,NW,314,3.0,5.0,74,0.00,,,0.00,Meteo,2013-01-31 07:08:00,
2013-01-31 01:13:00,10.0,3.4,29.60,NW,326,3.0,5.0,74,0.00,,,0.00,Meteo,2013-01-31 07:13:00,
2013-01-31 01:18:00,10.0,3.4,29.60,NW,311,1.0,2.0,74,0.00,,,0.00,Meteo,2013-01-31 07:18:00,
2013-01-31 01:23:00,10.0,3.4,29.60,NW,308,2.0,4.0,74,0.00,,,0.00,Meteo,2013-01-31 07:23:00,
2013-01-31 01:28:00,10.0,3.1,29.60,NW,321,2.0,4.0,73,0.00,,,0.00,Meteo,2013-01-31 07:28:00,
2013-01-31 01:33:00,10.0,3.1,29.61,NNW,333,2.0,4.0,73,0.00,,,0.00,Meteo,2013-01-31 07:33:00,
2013-01-31 01:38:00,10.0,3.1,29.61,WNW,303,4.0,7.0,73,0.00,,,0.00,Meteo,2013-01-31 07:38:00,
2013-01-31 01:43:00,10.0,3.1,29.61,NW,309,4.0,7.0,73,0.00,,,0.00,Meteo,2013-01-31 07:43:00,
2013-01-31 01:48:00,10.0,3.4,29.61,NW,314,0.0,1.0,74,0.00,,,0.00,Meteo,2013-01-31 07:48:00,
2013-01-31 01:54:00,10.0,3.4,29.62,NNW,329,1.0,3.0,74,0.00,,,0.00,Meteo,2013-01-31 07:54:00,
2013-01-31 01:59:00,10.0,3.4,29.62,WNW,284,1.0,3.0,74,0.00,,,0.00,Meteo,2013-01-31 07:59:00,
2013-01-31 02:04:00,10.0,3.4,29.62,NW,308,1.0,4.0,74,0.00,,,0.00,Meteo,2013-01-31 08:04:00,
2013-01-31 02:09:00,10.0,3.4,29.62,NW,308,2.0,5.0,74,0.00,,,0.00,Meteo,2013-01-31 08:09:00,
2013-01-31 02:14:00,10.0,3.1,29.62,NW,316,3.0,5.0,73,0.00,,,0.00,Meteo,2013-01-31 08:14:00,
2013-01-31 02:19:00,10.0,3.1,29.62,WNW,291,2.0,6.0,73,0.00,,,0.00,Meteo,2013-01-31 08:19:00,
2013-01-31 02:24:00,9.0,2.1,29.62,NW,309,2.0,6.0,73,0.00,,,0.00,Meteo,2013-01-31 08:24:00,
2013-01-31 02:29:00,9.0,2.4,29.62,NW,305,2.0,4.0,74,0.00,,,0.00,Meteo,2013-01-31 08:29:00,
2013-01-31 02:34:00,9.0,2.4,29.62,WNW,297,2.0,5.0,74,0.00,,,0.00,Meteo,2013-01-31 08:34:00,
2013-01-31 02:39:00,9.0,2.4,29.62,NW,312,2.0,5.0,74,0.00,,,0.00,Meteo,2013-01-31 08:39:00,
2013-01-31 02:44:00,9.0,2.4,29.62,NW,309,2.0,3.0,74,0.00,,,0.00,Meteo,2013-01-31 08:44:00,
2013-01-31 02:49:00,9.0,2.4,29.62,WNW,298,3.0,5.0,74,0.00,,,0.00,Meteo,2013-01-31 08:49:00,
2013-01-31 02:54:00,9.0,2.4,29.63,NW,316,3.0,5.0,74,0.00,,,0.00,Meteo,2013-01-31 08:54:00,
2013-01-31 02:59:00,9.0,2.4,29.63,WNW,295,2.0,5.0,74,0.00,,,0.00,Meteo,2013-01-31 08:59:00,
2013-01-31 03:04:00,9.0,2.4,29.62,WNW,287,2.0,6.0,74,0.00,,,0.00,Meteo,2013-01-31 09:04:00,
2013-01-31 03:09:00,9.0,2.4,29.62,West,275,1.0,5.0,74,0.00,,,0.00,Meteo,2013-01-31 09:09:00,
2013-01-31 03:14:00,9.0,2.1,29.62,West,274,2.0,4.0,73,0.00,,,0.00,Meteo,2013-01-31 09:14:00,
2013-01-31 03:19:00,9.0,2.4,29.62,WNW,297,2.0,3.0,74,0.00,,,0.00,Meteo,2013-01-31 09:19:00,
2013-01-31 03:24:00,9.0,2.1,29.62,WNW,290,1.0,3.0,73,0.00,,,0.00,Meteo,2013-01-31 09:24:00,
2013-01-31 03:30:00,9.0,2.1,29.62,WNW,300,2.0,5.0,73,0.00,,,0.00,Meteo,2013-01-31 09:30:00,
2013-01-31 03:35:00,9.0,2.1,29.62,WNW,293,1.0,3.0,73,0.00,,,0.00,Meteo,2013-01-31 09:35:00,
2013-01-31 03:40:00,9.0,2.1,29.62,WNW,294,1.0,2.0,73,0.00,,,0.00,Meteo,2013-01-31 09:40:00,
2013-01-31 03:45:00,9.0,2.4,29.63,WNW,303,1.0,3.0,74,0.00,,,0.00,Meteo,2013-01-31 09:45:00,
2013-01-31 03:50:00,9.0,2.1,29.63,WNW,302,1.0,3.0,73,0.00,,,0.00,Meteo,2013-01-31 09:50:00,
2013-01-31 03:55:00,9.0,2.4,29.63,WNW,283,1.0,4.0,74,0.00,,,0.00,Meteo,2013-01-31 09:55:00,
2013-01-31 04:00:00,9.0,2.1,29.63,West,278,1.0,3.0,73,0.00,,,0.00,Meteo,2013-01-31 10:00:00,
2013-01-31 04:05:00,9.0,2.1,29.63,WNW,292,1.0,2.0,73,0.00,,,0.00,Meteo,2013-01-31 10:05:00,
2013-01-31 04:10:00,9.0,2.1,29.63,NW,309,2.0,5.0,73,0.00,,,0.00,Meteo,2013-01-31 10:10:00,
2013-01-31 04:15:00,9.0,2.1,29.63,WNW,293,2.0,4.0,73,0.00,,,0.00,Meteo,2013-01-31 10:15:00,
2013-01-31 04:20:00,9.0,2.1,29.63,WNW,300,1.0,3.0,73,0.00,,,0.00,Meteo,2013-01-31 10:20:00,
2013-01-31 04:25:00,9.0,2.1,29.63,WNW,287,1.0,3.0,73,0.00,,,0.00,Meteo,2013-01-31 10:25:00,
2013-01-31 04:30:00,9.0,2.1,29.64,West,274,1.0,3.0,73,0.00,,,0.00,Meteo,2013-01-31 10:30:00,
2013-01-31 04:35:00,8.0,1.2,29.64,West,274,2.0,4.0,73,0.00,,,0.00,Meteo,2013-01-31 10:35:00,
2013-01-31 04:40:00,8.0,1.2,29.64,WSW,256,0.0,1.0,73,0.00,,,0.00,Meteo,2013-01-31 10:40:00,
2013-01-31 04:45:00,8.0,1.4,29.64,West,265,1.0,4.0,74,0.00,,,0.00,Meteo,2013-01-31 10:45:00,
2013-01-31 04:50:00,8.0,1.4,29.64,WSW,248,1.0,4.0,74,0.00,,,0.00,Meteo,2013-01-31 10:50:00,
2013-01-31 04:55:00,8.0,1.4,29.64,NW,317,1.0,3.0,74,0.00,,,0.00,Meteo,2013-01-31 10:55:00,
2013-01-31 05:00:00,8.0,1.4,29.64,West,263,1.0,3.0,74,0.00,,,0.00,Meteo,2013-01-31 11:00:00,
2013-01-31 05:05:00,8.0,1.4,29.64,West,261,1.0,2.0,74,0.00,,,0.00,Meteo,2013-01-31 11:05:00,
2013-01-31 05:10:00,8.0,1.4,29.65,WNW,299,1.0,4.0,74,0.00,,,0.00,Meteo,2013-01-31 11:10:00,
2013-01-31 05:15:00,8.0,1.4,29.65,WSW,252,2.0,5.0,74,0.00,,,0.00,Meteo,2013-01-31 11:15:00,
2013-01-31 05:20:00,8.0,1.4,29.65,WNW,291,1.0,2.0,74,0.00,,,0.00,Meteo,2013-01-31 11:20:00,
2013-01-31 05:25:00,8.0,1.4,29.65,WNW,285,0.0,2.0,74,0.00,,,0.00,Meteo,2013-01-31 11:25:00,
2013-01-31 05:30:00,8.0,1.4,29.65,West,259,1.0,3.0,74,0.00,,,0.00,Meteo,2013-01-31 11:30:00,
2013-01-31 05:35:00,8.0,1.4,29.65,West,268,2.0,3.0,74,0.00,,,0.00,Meteo,2013-01-31 11:35:00,
2013-01-31 05:40:00,8.0,1.4,29.65,West,269,2.0,4.0,74,0.00,,,0.00,Meteo,2013-01-31 11:40:00,
2013-01-31 05:45:00,8.0,1.4,29.65,West,279,2.0,5.0,74,0.00,,,0.00,Meteo,2013-01-31 11:45:00,
2013-01-31 05:50:00,8.0,1.4,29.65,WNW,298,2.0,6.0,74,0.00,,,0.00,Meteo,2013-01-31 11:50:00,
2013-01-31 05:55:00,8.0,1.4,29.65,WNW,288,2.0,4.0,74,0.00,,,0.00,Meteo,2013-01-31 11:55:00,
2013-01-31 06:00:00,8.0,1.4,29.65,West,273,2.0,4.0,74,0.00,,,0.00,Meteo,2013-01-31 12:00:00,
2013-01-31 06:05:00,8.0,1.7,29.66,West,281,1.0,2.0,75,0.00,,,0.00,Meteo,2013-01-31 12:05:00,
2013-01-31 06:10:00,8.0,1.7,29.66,WNW,289,1.0,3.0,75,0.00,,,0.00,Meteo,2013-01-31 12:10:00,
2013-01-31 06:15:00,8.0,1.7,29.66,West,281,1.0,3.0,75,0.00,,,0.00,Meteo,2013-01-31 12:15:00,
2013-01-31 06:20:00,8.0,1.7,29.66,West,259,1.0,2.0,75,0.00,,,0.00,Meteo,2013-01-31 12:20:00,
2013-01-31 06:25:00,8.0,1.4,29.66,WSW,245,1.0,2.0,74,0.00,,,0.00,Meteo,2013-01-31 12:25:00,
2013-01-31 06:30:00,8.0,1.4,29.67,West,263,1.0,3.0,74,0.00,,,0.00,Meteo,2013-01-31 12:30:00,
2013-01-31 06:35:00,8.0,1.4,29.67,West,270,2.0,4.0,74,0.00,,,0.00,Meteo,2013-01-31 12:35:00,
2013-01-31 06:40:00,8.0,1.4,29.67,West,270,1.0,2.0,74,0.00,,,0.00,Meteo,2013-01-31 12:40:00,
2013-01-31 06:45:00,8.0,1.4,29.67,WSW,243,2.0,4.0,74,0.00,,,0.00,Meteo,2013-01-31 12:45:00,
2013-01-31 06:50:00,8.0,1.4,29.67,WNW,296,0.0,2.0,74,0.00,,,0.00,Meteo,2013-01-31 12:50:00,
2013-01-31 06:55:00,8.0,1.4,29.68,West,261,0.0,2.0,74,0.00,,,0.00,Meteo,2013-01-31 12:55:00,
2013-01-31 07:00:00,8.0,1.2,29.68,West,265,3.0,6.0,73,0.00,,,0.00,Meteo,2013-01-31 13:00:00,
2013-01-31 07:05:00,8.0,1.2,29.68,NW,305,2.0,7.0,73,0.00,,,0.00,Meteo,2013-01-31 13:05:00,
2013-01-31 07:10:00,8.0,1.2,29.68,WNW,288,1.0,3.0,73,0.00,,,0.00,Meteo,2013-01-31 13:10:00,
2013-01-31 07:15:00,8.0,1.2,29.68,WNW,299,3.0,6.0,73,0.00,,,0.00,Meteo,2013-01-31 13:15:00,
2013-01-31 07:20:00,8.0,1.2,29.68,West,278,2.0,3.0,73,0.00,,,0.00,Meteo,2013-01-31 13:20:00,
2013-01-31 07:26:00,8.0,0.9,29.69,West,273,2.0,5.0,72,0.00,,,0.00,Meteo,2013-01-31 13:26:00,
2013-01-31 07:31:00,8.0,1.2,29.69,WNW,296,2.0,5.0,73,0.00,,,0.00,Meteo,2013-01-31 13:31:00,
2013-01-31 07:36:00,8.0,0.9,29.70,WNW,297,1.0,3.0,72,0.00,,,0.00,Meteo,2013-01-31 13:36:00,
2013-01-31 07:41:00,8.0,0.9,29.70,West,271,3.0,6.0,72,0.00,,,0.00,Meteo,2013-01-31 13:41:00,
2013-01-31 07:46:00,8.0,0.9,29.70,WNW,291,2.0,4.0,72,0.00,,,0.00,Meteo,2013-01-31 13:46:00,
2013-01-31 07:51:00,8.0,0.9,29.70,West,275,1.0,3.0,72,0.00,,,0.00,Meteo,2013-01-31 13:51:00,
2013-01-31 07:56:00,8.0,0.9,29.71,WNW,296,1.0,3.0,72,0.00,,,0.00,Meteo,2013-01-31 13:56:00,
2013-01-31 08:01:00,8.0,0.6,29.71,WNW,300,2.0,5.0,71,0.00,,,0.00,Meteo,2013-01-31 14:01:00,
2013-01-31 08:06:00,8.0,0.9,29.71,West,265,2.0,4.0,72,0.00,,,0.00,Meteo,2013-01-31 14:06:00,
2013-01-31 08:12:00,9.0,1.8,29.71,WNW,295,1.0,4.0,72,0.00,,,0.00,Meteo,2013-01-31 14:12:00,
2013-01-31 08:17:00,9.0,1.5,29.72,WNW,299,3.0,7.0,71,0.00,,,0.00,Meteo,2013-01-31 14:17:00,
2013-01-31 08:22:00,9.0,1.2,29.72,WNW,294,3.0,6.0,70,0.00,,,0.00,Meteo,2013-01-31 14:22:00,
2013-01-31 08:27:00,9.0,1.5,29.72,WNW,289,3.0,8.0,71,0.00,,,0.00,Meteo,2013-01-31 14:27:00,
2013-01-31 08:32:00,9.0,1.2,29.73,NW,305,3.0,6.0,70,0.00,,,0.00,Meteo,2013-01-31 14:32:00,
2013-01-31 08:37:00,9.0,0.9,29.73,WNW,290,3.0,8.0,69,0.00,,,0.00,Meteo,2013-01-31 14:37:00,
2013-01-31 08:42:00,9.0,0.9,29.73,WNW,286,3.0,9.0,69,0.00,,,0.00,Meteo,2013-01-31 14:42:00,
2013-01-31 08:47:00,9.0,1.2,29.73,WNW,290,3.0,5.0,70,0.00,,,0.00,Meteo,2013-01-31 14:47:00,
2013-01-31 08:52:00,9.0,0.9,29.74,NW,307,3.0,8.0,69,0.00,,,0.00,Meteo,2013-01-31 14:52:00,
2013-01-31 08:58:00,9.0,1.2,29.74,NW,307,5.0,9.0,70,0.00,,,0.00,Meteo,2013-01-31 14:58:00,
2013-01-31 09:03:00,9.0,1.5,29.74,NW,322,4.0,6.0,71,0.00,,,0.00,Meteo,2013-01-31 15:03:00,
2013-01-31 09:08:00,9.0,1.5,29.75,NW,317,5.0,8.0,71,0.00,,,0.00,Meteo,2013-01-31 15:08:00,
2013-01-31 09:13:00,9.0,1.8,29.75,NW,316,4.0,7.0,72,0.00,,,0.00,Meteo,2013-01-31 15:13:00,
2013-01-31 09:18:00,9.0,1.2,29.75,NW,317,4.0,8.0,70,0.00,,,0.00,Meteo,2013-01-31 15:18:00,
2013-01-31 09:23:00,9.0,0.9,29.75,NW,308,5.0,8.0,69,0.00,,,0.00,Meteo,2013-01-31 15:23:00,
2013-01-31 09:28:00,9.0,0.3,29.76,NW,319,6.0,8.0,67,0.00,,,0.00,Meteo,2013-01-31 15:28:00,
2013-01-31 09:33:00,9.0,0.3,29.76,NW,320,4.0,9.0,67,0.00,,,0.00,Meteo,2013-01-31 15:33:00,
2013-01-31 09:38:00,9.0,0.0,29.76,NNW,335,4.0,6.0,66,0.00,,,0.00,Meteo,2013-01-31 15:38:00,
2013-01-31 09:44:00,9.0,-0.4,29.77,NW,323,5.0,10.0,65,0.00,,,0.00,Meteo,2013-01-31 15:44:00,
2013-01-31 09:49:00,9.0,0.0,29.77,NNW,328,4.0,9.0,66,0.00,,,0.00,Meteo,2013-01-31 15:49:00,
2013-01-31 09:54:00,8.0,-1.0,29.77,NW,320,5.0,9.0,66,0.00,,,0.00,Meteo,2013-01-31 15:54:00,
2013-01-31 09:59:00,8.0,-1.3,29.78,NW,318,4.0,7.0,65,0.00,,,0.00,Meteo,2013-01-31 15:59:00,
2013-01-31 10:04:00,8.0,-1.6,29.78,NW,315,4.0,7.0,64,0.00,,,0.00,Meteo,2013-01-31 16:04:00,
2013-01-31 10:09:00,8.0,-1.3,29.78,NNW,334,6.0,9.0,65,0.00,,,0.00,Meteo,2013-01-31 16:09:00,
2013-01-31 10:14:00,8.0,-1.0,29.79,NW,312,3.0,7.0,66,0.00,,,0.00,Meteo,2013-01-31 16:14:00,
2013-01-31 10:19:00,9.0,-0.4,29.79,NW,305,3.0,7.0,65,0.00,,,0.00,Meteo,2013-01-31 16:19:00,
2013-01-31 10:24:00,8.0,-2.0,29.79,NW,312,7.0,9.0,63,0.00,,,0.00,Meteo,2013-01-31 16:24:00,
2013-01-31 10:30:00,8.0,-1.3,29.80,NW,311,6.0,9.0,65,0.00,,,0.00,Meteo,2013-01-31 16:30:00,
2013-01-31 10:35:00,8.0,-1.3,29.80,NW,323,5.0,10.0,65,0.00,,,0.00,Meteo,2013-01-31 16:35:00,
2013-01-31 10:40:00,8.0,-1.6,29.80,NW,313,6.0,9.0,64,0.00,,,0.00,Meteo,2013-01-31 16:40:00,
2013-01-31 10:45:00,9.0,-0.7,29.80,WNW,301,5.0,8.0,64,0.00,,,0.00,Meteo,2013-01-31 16:45:00,
2013-01-31 10:50:00,9.0,-0.7,29.81,NW,317,5.0,9.0,64,0.00,,,0.00,Meteo,2013-01-31 16:50:00,
2013-01-31 10:55:00,9.0,-1.4,29.81,NW,307,6.0,9.0,62,0.00,,,0.00,Meteo,2013-01-31 16:55:00,
2013-01-31 11:00:00,9.0,-1.4,29.81,WNW,294,7.0,10.0,62,0.00,,,0.00,Meteo,2013-01-31 17:00:00,
2013-01-31 11:05:00,9.0,-1.4,29.81,NW,307,5.0,10.0,62,0.00,,,0.00,Meteo,2013-01-31 17:05:00,
2013-01-31 11:10:00,9.0,-1.7,29.81,NW,312,4.0,9.0,61,0.00,,,0.00,Meteo,2013-01-31 17:10:00,
2013-01-31 11:15:00,9.0,-2.0,29.81,NW,309,6.0,10.0,60,0.00,,,0.00,Meteo,2013-01-31 17:15:00,
2013-01-31 11:20:00,9.0,-1.7,29.81,NW,324,4.0,8.0,61,0.00,,,0.00,Meteo,2013-01-31 17:20:00,
2013-01-31 11:25:00,9.0,-1.7,29.82,NW,305,8.0,12.0,61,0.00,,,0.00,Meteo,2013-01-31 17:25:00,
2013-01-31 11:30:00,9.0,-1.7,29.82,NW,307,6.0,12.0,61,0.00,,,0.00,Meteo,2013-01-31 17:30:00,
2013-01-31 11:35:00,9.0,-1.7,29.82,NW,305,4.0,11.0,61,0.00,,,0.00,Meteo,2013-01-31 17:35:00,
2013-01-31 11:40:00,9.0,-2.0,29.82,NW,306,6.0,8.0,60,0.00,,,0.00,Meteo,2013-01-31 17:40:00,
2013-01-31 11:45:00,9.0,-1.7,29.82,NW,313,4.0,6.0,61,0.00,,,0.00,Meteo,2013-01-31 17:45:00,
2013-01-31 11:50:00,9.0,-1.7,29.82,NW,320,5.0,8.0,61,0.00,,,0.00,Meteo,2013-01-31 17:50:00,
2013-01-31 11:55:00,9.0,-2.8,29.82,NW,304,4.0,8.0,58,0.00,,,0.00,Meteo,2013-01-31 17:55:00,
2013-01-31 12:00:00,9.0,-2.8,29.83,NW,311,5.0,10.0,58,0.00,,,0.00,Meteo,2013-01-31 18:00:00,
2013-01-31 12:05:00,9.0,-2.8,29.83,NW,320,3.0,5.0,58,0.00,,,0.00,Meteo,2013-01-31 18:05:00,
2013-01-31 12:10:00,9.0,-2.8,29.83,WNW,295,5.0,8.0,58,0.00,,,0.00,Meteo,2013-01-31 18:10:00,
2013-01-31 12:15:00,9.0,-2.8,29.83,NW,307,5.0,7.0,58,0.00,,,0.00,Meteo,2013-01-31 18:15:00,
2013-01-31 12:20:00,9.0,-2.0,29.83,NW,312,5.0,11.0,60,0.00,,,0.00,Meteo,2013-01-31 18:20:00,
2013-01-31 12:25:00,9.0,-2.4,29.83,NW,312,6.0,9.0,59,0.00,,,0.00,Meteo,2013-01-31 18:25:00,
2013-01-31 12:30:00,9.0,-2.8,29.83,NW,314,5.0,8.0,58,0.00,,,0.00,Meteo,2013-01-31 18:30:00,
2013-01-31 12:35:00,9.0,-1.7,29.84,NW,315,5.0,9.0,61,0.00,,,0.00,Meteo,2013-01-31 18:35:00,
2013-01-31 12:40:00,9.0,-2.4,29.84,WNW,297,4.0,7.0,59,0.00,,,0.00,Meteo,2013-01-31 18:40:00,
2013-01-31 12:45:00,8.0,-4.1,29.84,WNW,303,5.0,11.0,57,0.00,,,0.00,Meteo,2013-01-31 18:45:00,
2013-01-31 12:50:00,9.0,-2.8,29.84,NNW,330,4.0,7.0,58,0.00,,,0.00,Meteo,2013-01-31 18:50:00,
2013-01-31 12:55:00,9.0,-2.8,29.84,WNW,293,6.0,11.0,58,0.00,,,0.00,Meteo,2013-01-31 18:55:00,
2013-01-31 13:00:00,9.0,-2.4,29.84,WNW,302,6.0,13.0,59,0.00,,,0.00,Meteo,2013-01-31 19:00:00,
2013-01-31 13:05:00,9.0,-2.4,29.84,WNW,302,3.0,8.0,59,0.00,,,0.00,Meteo,2013-01-31 19:05:00,
2013-01-31 13:10:00,9.0,-3.1,29.85,NW,320,5.0,8.0,57,0.00,,,0.00,Meteo,2013-01-31 19:10:00,
2013-01-31 13:15:00,9.0,-3.1,29.85,NW,314,6.0,12.0,57,0.00,,,0.00,Meteo,2013-01-31 19:15:00,
2013-01-31 13:20:00,9.0,-3.1,29.85,NW,314,5.0,10.0,57,0.00,,,0.00,Meteo,2013-01-31 19:20:00,
2013-01-31 13:25:00,9.0,-2.8,29.85,NW,312,4.0,7.0,58,0.00,,,0.00,Meteo,2013-01-31 19:25:00,
2013-01-31 13:30:00,9.0,-2.4,29.85,NW,310,5.0,8.0,59,0.00,,,0.00,Meteo,2013-01-31 19:30:00,
2013-01-31 13:36:00,9.0,-3.5,29.85,NW,315,5.0,8.0,56,0.00,,,0.00,Meteo,2013-01-31 19:36:00,
2013-01-31 13:42:00,9.0,-2.8,29.85,NNW,328,6.0,9.0,58,0.00,,,0.00,Meteo,2013-01-31 19:42:00,
2013-01-31 13:47:00,9.0,-2.8,29.85,NW,320,3.0,6.0,58,0.00,,,0.00,Meteo,2013-01-31 19:47:00,
2013-01-31 13:52:00,9.0,-2.0,29.86,NW,321,3.0,7.0,60,0.00,,,0.00,Meteo,2013-01-31 19:52:00,
2013-01-31 13:57:00,9.0,-1.7,29.86,NW,309,4.0,7.0,61,0.00,,,0.00,Meteo,2013-01-31 19:57:00,
2013-01-31 14:02:00,9.0,-2.0,29.86,NW,306,8.0,12.0,60,0.00,,,0.00,Meteo,2013-01-31 20:02:00,
2013-01-31 14:07:00,9.0,-2.0,29.86,NW,324,6.0,9.0,60,0.00,,,0.00,Meteo,2013-01-31 20:07:00,
2013-01-31 14:12:00,9.0,-1.7,29.86,NW,320,5.0,10.0,61,0.00,,,0.00,Meteo,2013-01-31 20:12:00,
2013-01-31 14:17:00,9.0,-2.0,29.86,NW,323,5.0,8.0,60,0.00,,,0.00,Meteo,2013-01-31 20:17:00,
2013-01-31 14:22:00,9.0,-2.4,29.86,NW,306,5.0,8.0,59,0.00,,,0.00,Meteo,2013-01-31 20:22:00,
2013-01-31 14:27:00,9.0,-2.4,29.87,WNW,295,4.0,11.0,59,0.00,,,0.00,Meteo,2013-01-31 20:27:00,
2013-01-31 14:33:00,9.0,-2.0,29.87,WNW,286,4.0,10.0,60,0.00,,,0.00,Meteo,2013-01-31 20:33:00,
2013-01-31 14:38:00,9.0,-2.8,29.87,NW,305,6.0,10.0,58,0.00,,,0.00,Meteo,2013-01-31 20:38:00,
2013-01-31 14:43:00,9.0,-1.0,29.88,WNW,288,5.0,11.0,63,0.00,,,0.00,Meteo,2013-01-31 20:43:00,
2013-01-31 14:48:00,9.0,-1.0,29.88,WNW,287,4.0,9.0,63,0.00,,,0.00,Meteo,2013-01-31 20:48:00,
2013-01-31 14:53:00,9.0,-1.4,29.88,NW,306,4.0,8.0,62,0.00,,,0.00,Meteo,2013-01-31 20:53:00,
2013-01-31 14:59:00,9.0,-2.4,29.88,NW,306,3.0,6.0,59,0.00,,,0.00,Meteo,2013-01-31 20:59:00,
2013-01-31 15:04:00,9.0,-2.8,29.88,WNW,286,5.0,10.0,58,0.00,,,0.00,Meteo,2013-01-31 21:04:00,
2013-01-31 15:09:00,9.0,-2.4,29.88,NW,311,6.0,10.0,59,0.00,,,0.00,Meteo,2013-01-31 21:09:00,
2013-01-31 15:14:00,9.0,-2.4,29.89,WNW,297,5.0,9.0,59,0.00,,,0.00,Meteo,2013-01-31 21:14:00,
2013-01-31 15:19:00,9.0,-2.4,29.89,NW,308,2.0,5.0,59,0.00,,,0.00,Meteo,2013-01-31 21:19:00,
2013-01-31 15:24:00,9.0,-2.4,29.89,WNW,303,3.0,6.0,59,0.00,,,0.00,Meteo,2013-01-31 21:24:00,
2013-01-31 15:29:00,9.0,-2.0,29.89,WNW,294,3.0,6.0,60,0.00,,,0.00,Meteo,2013-01-31 21:29:00,
2013-01-31 15:34:00,9.0,-2.0,29.90,NW,307,7.0,9.0,60,0.00,,,0.00,Meteo,2013-01-31 21:34:00,
2013-01-31 15:39:00,8.0,-3.0,29.90,NW,312,5.0,7.0,60,0.00,,,0.00,Meteo,2013-01-31 21:39:00,
2013-01-31 15:44:00,8.0,-2.6,29.90,WNW,292,3.0,6.0,61,0.00,,,0.00,Meteo,2013-01-31 21:44:00,
2013-01-31 15:49:00,8.0,-2.3,29.90,NW,316,4.0,7.0,62,0.00,,,0.00,Meteo,2013-01-31 21:49:00,
2013-01-31 15:54:00,8.0,-2.6,29.90,NW,316,4.0,6.0,61,0.00,,,0.00,Meteo,2013-01-31 21:54:00,
2013-01-31 15:59:00,8.0,-2.3,29.90,WNW,300,3.0,6.0,62,0.00,,,0.00,Meteo,2013-01-31 21:59:00,
2013-01-31 16:04:00,8.0,-2.6,29.91,NW,315,8.0,12.0,61,0.00,,,0.00,Meteo,2013-01-31 22:04:00,
2013-01-31 16:09:00,8.0,-2.3,29.91,NW,320,4.0,8.0,62,0.00,,,0.00,Meteo,2013-01-31 22:09:00,
2013-01-31 16:14:00,8.0,-2.0,29.91,NW,313,3.0,5.0,63,0.00,,,0.00,Meteo,2013-01-31 22:14:00,
2013-01-31 16:19:00,8.0,-2.0,29.91,NW,309,4.0,9.0,63,0.00,,,0.00,Meteo,2013-01-31 22:19:00,
2013-01-31 16:24:00,8.0,-1.6,29.92,WNW,288,1.0,4.0,64,0.00,,,0.00,Meteo,2013-01-31 22:24:00,
2013-01-31 16:29:00,8.0,-1.3,29.92,WNW,303,1.0,4.0,65,0.00,,,0.00,Meteo,2013-01-31 22:29:00,
2013-01-31 16:34:00,8.0,-1.6,29.92,NW,306,1.0,3.0,64,0.00,,,0.00,Meteo,2013-01-31 22:34:00,
2013-01-31 16:39:00,8.0,-1.6,29.92,WNW,292,3.0,12.0,64,0.00,,,0.00,Meteo,2013-01-31 22:39:00,
2013-01-31 16:44:00,8.0,-2.0,29.92,WNW,303,2.0,4.0,63,0.00,,,0.00,Meteo,2013-01-31 22:44:00,
2013-01-31 16:49:00,8.0,-1.6,29.92,WNW,287,1.0,3.0,64,0.00,,,0.00,Meteo,2013-01-31 22:49:00,
2013-01-31 16:54:00,8.0,-1.6,29.93,WNW,286,3.0,5.0,64,0.00,,,0.00,Meteo,2013-01-31 22:54:00,
2013-01-31 16:59:00,8.0,-1.6,29.93,WNW,293,3.0,6.0,64,0.00,,,0.00,Meteo,2013-01-31 22:59:00,
2013-01-31 17:04:00,8.0,-1.6,29.94,West,259,2.0,5.0,64,0.00,,,0.00,Meteo,2013-01-31 23:04:00,
2013-01-31 17:10:00,8.0,-1.0,29.94,West,275,2.0,4.0,66,0.00,,,0.00,Meteo,2013-01-31 23:10:00,
2013-01-31 17:15:00,8.0,-1.0,29.94,West,278,2.0,4.0,66,0.00,,,0.00,Meteo,2013-01-31 23:15:00,
2013-01-31 17:20:00,8.0,-1.0,29.94,WNW,292,2.0,6.0,66,0.00,,,0.00,Meteo,2013-01-31 23:20:00,
2013-01-31 17:25:00,8.0,-0.7,29.94,West,274,1.0,3.0,67,0.00,,,0.00,Meteo,2013-01-31 23:25:00,
2013-01-31 17:30:00,7.0,-1.6,29.95,WSW,250,0.0,1.0,67,0.00,,,0.00,Meteo,2013-01-31 23:30:00,
2013-01-31 17:35:00,7.0,-1.6,29.95,West,268,1.0,4.0,67,0.00,,,0.00,Meteo,2013-01-31 23:35:00,
2013-01-31 17:40:00,7.0,-1.9,29.95,West,266,2.0,6.0,66,0.00,,,0.00,Meteo,2013-01-31 23:40:00,
2013-01-31 17:45:00,7.0,-2.3,29.95,West,265,2.0,5.0,65,0.00,,,0.00,Meteo,2013-01-31 23:45:00,
2013-01-31 17:50:00,7.0,-2.3,29.96,NNW,336,1.0,2.0,65,0.00,,,0.00,Meteo,2013-01-31 23:50:00,
2013-01-31 17:55:00,7.0,-2.6,29.96,WNW,294,4.0,7.0,64,0.00,,,0.00,Meteo,2013-01-31 23:55:00,
2013-01-31 18:00:00,7.0,-2.6,29.96,WNW,283,2.0,4.0,64,0.00,,,0.00,Meteo,2013-02-01 00:00:00,
2013-01-31 18:05:00,7.0,-2.6,29.96,WSW,241,1.0,4.0,64,0.00,,,0.00,Meteo,2013-02-01 00:05:00,
2013-01-31 18:10:00,7.0,-2.6,29.96,WNW,283,2.0,4.0,64,0.00,,,0.00,Meteo,2013-02-01 00:10:00,
2013-01-31 18:15:00,7.0,-2.6,29.97,West,266,3.0,5.0,64,0.00,,,0.00,Meteo,2013-02-01 00:15:00,
2013-01-31 18:20:00,7.0,-2.3,29.97,West,278,3.0,6.0,65,0.00,,,0.00,Meteo,2013-02-01 00:20:00,
2013-01-31 18:25:00,7.0,-2.6,29.97,West,277,2.0,4.0,64,0.00,,,0.00,Meteo,2013-02-01 00:25:00,
2013-01-31 18:30:00,7.0,-2.3,29.97,West,264,3.0,4.0,65,0.00,,,0.00,Meteo,2013-02-01 00:30:00,
2013-01-31 18:35:00,7.0,-2.3,29.97,WNW,293,1.0,3.0,65,0.00,,,0.00,Meteo,2013-02-01 00:35:00,
2013-01-31 18:41:00,7.0,-2.6,29.97,WNW,285,3.0,6.0,64,0.00,,,0.00,Meteo,2013-02-01 00:41:00,
2013-01-31 18:46:00,6.0,-3.5,29.98,WNW,303,5.0,9.0,64,0.00,,,0.00,Meteo,2013-02-01 00:46:00,
2013-01-31 18:51:00,6.0,-3.5,29.98,WNW,287,2.0,8.0,64,0.00,,,0.00,Meteo,2013-02-01 00:51:00,
2013-01-31 18:56:00,6.0,-3.5,29.98,West,277,1.0,3.0,64,0.00,,,0.00,Meteo,2013-02-01 00:56:00,
2013-01-31 19:01:00,6.0,-3.2,29.98,NW,307,2.0,4.0,65,0.00,,,0.00,Meteo,2013-02-01 01:01:00,
2013-01-31 19:06:00,6.0,-3.2,29.99,WNW,282,3.0,5.0,65,0.00,,,0.00,Meteo,2013-02-01 01:06:00,
2013-01-31 19:11:00,6.0,-3.5,29.99,WNW,298,4.0,7.0,64,0.00,,,0.00,Meteo,2013-02-01 01:11:00,
2013-01-31 19:16:00,6.0,-3.5,29.99,WNW,302,3.0,6.0,64,0.00,,,0.00,Meteo,2013-02-01 01:16:00,
2013-01-31 19:21:00,6.0,-3.9,29.99,West,276,3.0,5.0,63,0.00,,,0.00,Meteo,2013-02-01 01:21:00,
2013-01-31 19:26:00,6.0,-3.9,29.99,WNW,299,3.0,8.0,63,0.00,,,0.00,Meteo,2013-02-01 01:26:00,
2013-01-31 19:31:00,6.0,-3.9,29.99,WNW,297,2.0,5.0,63,0.00,,,0.00,Meteo,2013-02-01 01:31:00,
2013-01-31 19:36:00,6.0,-3.9,29.99,West,280,1.0,3.0,63,0.00,,,0.00,Meteo,2013-02-01 01:36:00,
2013-01-31 19:41:00,6.0,-3.9,30.00,WNW,286,3.0,7.0,63,0.00,,,0.00,Meteo,2013-02-01 01:41:00,
2013-01-31 19:46:00,6.0,-4.2,30.00,West,267,1.0,2.0,62,0.00,,,0.00,Meteo,2013-02-01 01:46:00,
2013-01-31 19:51:00,6.0,-3.9,30.00,West,277,2.0,5.0,63,0.00,,,0.00,Meteo,2013-02-01 01:51:00,
2013-01-31 19:56:00,6.0,-3.9,30.01,WNW,293,1.0,2.0,63,0.00,,,0.00,Meteo,2013-02-01 01:56:00,
2013-01-31 20:01:00,5.0,-4.8,30.01,WNW,283,1.0,2.0,63,0.00,,,0.00,Meteo,2013-02-01 02:01:00,
2013-01-31 20:06:00,5.0,-4.8,30.01,WNW,288,1.0,3.0,63,0.00,,,0.00,Meteo,2013-02-01 02:06:00,
2013-01-31 20:11:00,5.0,-4.8,30.01,West,279,1.0,4.0,63,0.00,,,0.00,Meteo,2013-02-01 02:11:00,
2013-01-31 20:16:00,5.0,-4.8,30.01,WSW,257,1.0,3.0,63,0.00,,,0.00,Meteo,2013-02-01 02:16:00,
2013-01-31 20:21:00,5.0,-4.5,30.01,West,267,1.0,3.0,64,0.00,,,0.00,Meteo,2013-02-01 02:21:00,
2013-01-31 20:26:00,5.0,-4.5,30.02,West,268,1.0,2.0,64,0.00,,,0.00,Meteo,2013-02-01 02:26:00,
2013-01-31 20:31:00,5.0,-4.2,30.02,WNW,290,0.0,1.0,65,0.00,,,0.00,Meteo,2013-02-01 02:31:00,
2013-01-31 20:36:00,5.0,-4.2,30.02,West,261,2.0,3.0,65,0.00,,,0.00,Meteo,2013-02-01 02:36:00,
2013-01-31 20:41:00,5.0,-3.9,30.02,WNW,292,2.0,5.0,66,0.00,,,0.00,Meteo,2013-02-01 02:41:00,
2013-01-31 20:46:00,5.0,-3.9,30.02,West,267,3.0,6.0,66,0.00,,,0.00,Meteo,2013-02-01 02:46:00,
2013-01-31 20:51:00,5.0,-3.9,30.02,West,266,2.0,5.0,66,0.00,,,0.00,Meteo,2013-02-01 02:51:00,
2013-01-31 20:56:00,5.0,-4.2,30.02,West,281,0.0,2.0,65,0.00,,,0.00,Meteo,2013-02-01 02:56:00,
2013-01-31 21:01:00,5.0,-4.2,30.03,West,268,2.0,4.0,65,0.00,,,0.00,Meteo,2013-02-01 03:01:00,
2013-01-31 21:06:00,5.0,-4.2,30.03,West,279,2.0,4.0,65,0.00,,,0.00,Meteo,2013-02-01 03:06:00,
2013-01-31 21:11:00,5.0,-4.2,30.03,NW,305,2.0,7.0,65,0.00,,,0.00,Meteo,2013-02-01 03:11:00,
2013-01-31 21:16:00,5.0,-4.2,30.03,WNW,284,2.0,3.0,65,0.00,,,0.00,Meteo,2013-02-01 03:16:00,
2013-01-31 21:21:00,5.0,-4.2,30.04,West,269,1.0,2.0,65,0.00,,,0.00,Meteo,2013-02-01 03:21:00,
2013-01-31 21:26:00,5.0,-4.2,30.04,WSW,254,1.0,2.0,65,0.00,,,0.00,Meteo,2013-02-01 03:26:00,
2013-01-31 21:31:00,5.0,-3.9,30.04,North,0,0.0,0.0,66,0.00,,,0.00,Meteo,2013-02-01 03:31:00,
2013-01-31 21:36:00,5.0,-3.9,30.04,SW,226,1.0,3.0,66,0.00,,,0.00,Meteo,2013-02-01 03:36:00,
2013-01-31 21:41:00,5.0,-3.5,30.04,WSW,251,0.0,1.0,67,0.00,,,0.00,Meteo,2013-02-01 03:41:00,
2013-01-31 21:46:00,5.0,-3.2,30.04,West,277,0.0,1.0,68,0.00,,,0.00,Meteo,2013-02-01 03:46:00,
2013-01-31 21:51:00,5.0,-3.2,30.04,West,262,0.0,1.0,68,0.00,,,0.00,Meteo,2013-02-01 03:51:00,
2013-01-31 21:56:00,5.0,-3.2,30.04,SW,234,1.0,2.0,68,0.00,,,0.00,Meteo,2013-02-01 03:56:00,
2013-01-31 22:01:00,5.0,-3.2,30.04,SW,231,0.0,2.0,68,0.00,,,0.00,Meteo,2013-02-01 04:01:00,
2013-01-31 22:06:00,5.0,-3.5,30.04,West,263,1.0,2.0,67,0.00,,,0.00,Meteo,2013-02-01 04:06:00,
2013-01-31 22:11:00,5.0,-3.9,30.04,West,268,1.0,3.0,66,0.00,,,0.00,Meteo,2013-02-01 04:11:00,
2013-01-31 22:16:00,5.0,-3.9,30.05,West,263,1.0,2.0,66,0.00,,,0.00,Meteo,2013-02-01 04:16:00,
2013-01-31 22:21:00,4.0,-4.8,30.05,WNW,296,1.0,5.0,66,0.00,,,0.00,Meteo,2013-02-01 04:21:00,
2013-01-31 22:26:00,4.0,-4.8,30.05,West,263,2.0,5.0,66,0.00,,,0.00,Meteo,2013-02-01 04:26:00,
2013-01-31 22:31:00,4.0,-4.8,30.05,NW,309,1.0,3.0,66,0.00,,,0.00,Meteo,2013-02-01 04:31:00,
2013-01-31 22:36:00,4.0,-4.8,30.05,WSW,245,1.0,3.0,66,0.00,,,0.00,Meteo,2013-02-01 04:36:00,
2013-01-31 22:41:00,4.0,-4.8,30.05,WNW,283,2.0,3.0,66,0.00,,,0.00,Meteo,2013-02-01 04:41:00,
2013-01-31 22:47:00,4.0,-4.8,30.05,West,275,2.0,3.0,66,0.00,,,0.00,Meteo,2013-02-01 04:47:00,
2013-01-31 22:52:00,4.0,-4.8,30.05,West,279,1.0,2.0,66,0.00,,,0.00,Meteo,2013-02-01 04:52:00,
2013-01-31 22:57:00,4.0,-4.8,30.06,West,267,1.0,3.0,66,0.00,,,0.00,Meteo,2013-02-01 04:57:00,
2013-01-31 22:59:00,4.0,-4.8,30.06,WSW,253,1.0,2.0,66,0.00,,,0.00,Meteo,2013-02-01 04:59:00,
2013-01-31 23:00:00,4.0,-4.8,30.06,WSW,253,1.0,2.0,66,0.00,,,0.00,Meteo,2013-02-01 05:00:00,
2013-01-31 23:16:00,4.0,-4.5,30.06,WSW,255,1.0,2.0,67,0.00,,,0.00,Meteo,2013-02-01 05:16:00,
2013-01-31 23:17:00,4.0,-4.5,30.06,SW,219,1.0,3.0,67,0.00,,,0.00,Meteo,2013-02-01 05:17:00,
2013-01-31 23:21:00,4.0,-4.5,30.06,West,267,2.0,3.0,67,0.00,,,0.00,Meteo,2013-02-01 05:21:00,
2013-01-31 23:26:00,3.0,-5.5,30.06,West,270,2.0,6.0,67,0.00,,,0.00,Meteo,2013-02-01 05:26:00,
2013-01-31 23:31:00,3.0,-5.5,30.06,West,274,1.0,2.0,67,0.00,,,0.00,Meteo,2013-02-01 05:31:00,
2013-01-31 23:36:00,3.0,-5.5,30.06,WNW,302,2.0,6.0,67,0.00,,,0.00,Meteo,2013-02-01 05:36:00,
2013-01-31 23:41:00,3.0,-5.8,30.06,West,264,2.0,4.0,66,0.00,,,0.00,Meteo,2013-02-01 05:41:00,
2013-01-31 23:46:00,3.0,-6.1,30.06,WNW,284,1.0,4.0,65,0.00,,,0.00,Meteo,2013-02-01 05:46:00,
2013-01-31 23:51:00,2.0,-7.0,30.07,West,267,1.0,5.0,65,0.00,,,0.00,Meteo,2013-02-01 05:51:00,
2013-01-31 23:56:00,2.0,-7.4,30.07,WSW,252,4.0,8.0,64,0.00,,,0.00,Meteo,2013-02-01 05:56:00,